Flight Track Log - Related Links

Times and Time Zones

All times are in EDT time to prevent confusion due to time zone crossing. See the N700QA flight status page for this flight to view local times or setup timezone preferences in your user account.

Time Position Orientation Groundspeed Altitude Reporting Facility
EDT Latitude Longitude Course Direction KTS MPH feet Rate Location/Type
Thu 11:45:52 PM 33.9333 -118.4333 217° Southwest 182 209 1,600  Level Southern California TRACON
Thu 11:47:08 PM 33.8628 -118.4978 217° Southwest 257 296 4,700 2,609 Climbing Los Angeles Center
Thu 11:48:10 PM 33.7981 -118.5225 198° South 267 307 7,600 2,613 Climbing Los Angeles Center
Thu 11:49:12 PM 33.7256 -118.5108 172° South 268 308 10,100 2,129 Climbing Los Angeles Center
Thu 11:50:14 PM 33.6836 -118.4022 115° Southeast 316 364 12,000 1,790 Climbing Los Angeles Center
Thu 11:51:16 PM 33.6828 -118.2908 90° East 343 395 13,800 2,032 Climbing Los Angeles Center
Thu 11:52:18 PM 33.6753 -118.1758 94° East 351 404 16,200 2,244 Climbing Los Angeles Center
Thu 11:53:19 PM 33.6611 -118.0647 99° East 343 395 18,400 1,366 Climbing Los Angeles Center
Thu 11:54:21 PM 33.6475 -117.9250 97° East 352 405 19,000 774 Climbing Los Angeles Center
Thu 11:55:23 PM 33.6344 -117.7972 97° East 380 437 20,000 919 Climbing Los Angeles Center
Thu 11:56:25 PM 33.6192 -117.6656 98° East 396 456 20,900 629 Climbing Los Angeles Center
Thu 11:57:27 PM 33.6050 -117.5319 97° East 403 464 21,300 732 Climbing Los Angeles Center
Thu 11:58:28 PM 33.5914 -117.4014 97° East 397 457 22,400 927 Climbing Los Angeles Center
Thu 11:59:30 PM 33.5761 -117.2758 98° East 382 440 23,200 871 Climbing Los Angeles Center
Fri 12:00:32 AM 33.5600 -117.1369 98° East 396 456 24,200 968 Climbing Los Angeles Center
Fri 12:01:34 AM 33.5436 -117.0022 98° East 407 468 25,200 976 Climbing Los Angeles Center
Fri 12:02:35 AM 33.5275 -116.8628 98° East 415 478 26,200 976 Climbing Los Angeles Center
Fri 12:03:37 AM 33.5244 -116.7217 91° East 422 486 27,200 1,113 Climbing Los Angeles Center
Fri 12:04:39 AM 33.5322 -116.5539 87° East 421 484 28,500 1,122 Climbing Los Angeles Center
Fri 12:05:40 AM 33.5375 -116.4153 87° East 418 481 29,500 829 Climbing Los Angeles Center
Fri 12:06:42 AM 33.5422 -116.2725 88° East 423 487 30,200 677 Climbing Los Angeles Center
Fri 12:07:44 AM 33.5467 -116.1306 88° East 424 488 30,900 677 Climbing Los Angeles Center
Fri 12:08:46 AM 33.5497 -115.9856 89° East 430 495 31,600 780 Climbing Los Angeles Center
Fri 12:09:47 AM 33.5544 -115.8403 88° East 434 499 32,500 732 Climbing Los Angeles Center
Fri 12:10:49 AM 33.5344 -115.7000 100° East 428 493 33,100 677 Climbing Los Angeles Center
Fri 12:11:51 AM 33.5067 -115.5606 103° East 430 495 33,900 780 Climbing Los Angeles Center
Fri 12:12:52 AM 33.4833 -115.3933 99° East 427 491 34,700 537 Climbing Los Angeles Center
Fri 12:13:54 AM 33.4619 -115.2528 100° East 427 491 35,000 145 Climbing Los Angeles Center
Fri 12:14:56 AM 33.4408 -115.1078 100° East 439 505 35,000 48 Level Los Angeles Center
Fri 12:15:58 AM 33.4186 -114.9583 100° East 454 522 35,100 49 Climbing Los Angeles Center
Fri 12:16:59 AM 33.3961 -114.8044 100° East 470 541 35,100  Level Los Angeles Center
Fri 12:18:01 AM 33.3750 -114.6497 99° East 479 551 35,100  Level Los Angeles Center
Fri 12:19:02 AM 33.3503 -114.4956 101° East 475 547 35,100  Level Los Angeles Center
Fri 12:20:04 AM 33.3278 -114.3383 100° East 477 549 35,100  Level Los Angeles Center
Fri 12:21:06 AM 33.2989 -114.1500 100° East 482 555 35,100  Level Los Angeles Center
Fri 12:22:07 AM 33.2742 -113.9925 101° East 483 556 35,100  Level Los Angeles Center
Fri 12:23:09 AM 33.2494 -113.8364 101° East 478 550 35,100 -48 Level Los Angeles Center
Fri 12:24:11 AM 33.2244 -113.6756 100° East 486 559 35,000 -49 Descending Los Angeles Center
Fri 12:25:12 AM 33.1992 -113.5192 101° East 480 552 35,000  Level Los Angeles Center
Fri 12:26:14 AM 33.1739 -113.3378 99° East 506 582 35,000  Level Los Angeles Center
Fri 12:27:32 AM 33.1389 -113.1369 102° East 489 563 35,000 43 Level Albuquerque Center
Fri 12:28:33 AM 33.1133 -112.9764 101° East 489 563 35,100  Climbing Albuquerque Center
Fri 12:29:34 AM 33.0864 -112.8175 101° East 489 563 35,000 -49 Descending Albuquerque Center
Fri 12:30:35 AM 33.0589 -112.6589 102° East 489 563 35,000  Level Albuquerque Center
Fri 12:31:36 AM 33.0336 -112.5000 101° East 489 563 35,000  Level Albuquerque Center
Fri 12:32:37 AM 33.0061 -112.3408 102° East 489 563 35,000  Level Albuquerque Center
Fri 12:33:38 AM 32.9786 -112.1683 101° East 489 563 35,000  Level Albuquerque Center
Fri 12:34:39 AM 32.9519 -112.0100 101° East 489 563 35,000  Level Albuquerque Center
Fri 12:35:40 AM 32.9239 -111.8533 102° East 489 563 35,000  Level Albuquerque Center
Fri 12:36:41 AM 32.8967 -111.6950 102° East 489 563 35,000  Level Albuquerque Center
Fri 12:37:42 AM 32.8692 -111.5369 102° East 490 564 35,000  Level Albuquerque Center
Fri 12:38:43 AM 32.8403 -111.3803 102° East 489 563 35,000  Level Albuquerque Center
Fri 12:39:44 AM 32.8119 -111.2206 102° East 491 565 35,000  Level Albuquerque Center
Fri 12:40:45 AM 32.7844 -111.0617 102° East 492 566 35,000  Level Albuquerque Center
Fri 12:41:46 AM 32.7489 -110.8719 103° East 492 566 35,000  Level Albuquerque Center
Fri 12:42:47 AM 32.7206 -110.7125 102° East 492 566 35,000  Level Albuquerque Center
Fri 12:43:47 AM 32.6956 -110.5739 102° East 492 566 35,000  Level Albuquerque Center
Fri 12:44:48 AM 32.6617 -110.3950 103° East 494 568 35,000  Level Albuquerque Center
Fri 12:45:49 AM 32.6361 -110.2550 102° East 494 568 35,000  Level Albuquerque Center
Fri 12:46:50 AM 32.5981 -110.0647 103° East 495 570 35,000 246 Level Albuquerque Center
Fri 12:47:51 AM 32.5686 -109.9069 102° East 495 570 35,500 492 Climbing Albuquerque Center
Fri 12:48:52 AM 32.5386 -109.7542 103° East 484 557 36,000 545 Climbing Albuquerque Center
Fri 12:49:52 AM 32.5064 -109.6003 104° East 483 556 36,600 446 Climbing Albuquerque Center
Fri 12:50:53 AM 32.4789 -109.4528 102° East 470 541 36,900 197 Climbing Albuquerque Center
Fri 12:51:54 AM 32.4506 -109.3056 103° East 467 537 37,000 49 Climbing Albuquerque Center
Fri 12:52:55 AM 32.4200 -109.1544 103° East 469 540 37,000  Level Albuquerque Center
Fri 12:53:55 AM 32.3908 -109.0025 103° East 474 545 37,000  Level Albuquerque Center
Fri 12:54:56 AM 32.3603 -108.8494 103° East 480 552 37,000  Level Albuquerque Center
Fri 12:55:57 AM 32.3283 -108.6947 104° East 483 556 37,000 49 Level Albuquerque Center
Fri 12:56:58 AM 32.2975 -108.5383 103° East 489 563 37,100  Climbing Albuquerque Center
Fri 12:57:59 AM 32.2614 -108.3619 104° East 490 564 37,000  Descending Albuquerque Center
Fri 12:58:59 AM 32.2292 -108.2042 104° East 490 564 37,100  Climbing Albuquerque Center
Fri 01:00:00 AM 32.1958 -108.0467 104° East 494 568 37,000  Descending Albuquerque Center
Fri 01:01:01 AM 32.1639 -107.8872 103° East 497 572 37,100 49 Climbing Albuquerque Center
Fri 01:02:02 AM 32.1303 -107.7289 104° East 498 573 37,100 -50 Level Albuquerque Center
Fri 01:03:02 AM 32.0972 -107.5714 104° East 499 574 37,000  Descending Albuquerque Center
Fri 01:04:03 AM 32.0647 -107.4117 103° East 501 577 37,100 49 Climbing Albuquerque Center
Fri 01:05:04 AM 32.0233 -107.2217 104° East 502 578 37,100  Level Albuquerque Center
Fri 01:06:05 AM 31.9892 -107.0622 104° East 503 579 37,100  Level Albuquerque Center
Fri 01:07:06 AM 31.9547 -106.9017 104° East 506 582 37,100 -50 Level Albuquerque Center
Fri 01:08:06 AM 31.9203 -106.7422 104° East 506 582 37,000  Descending Albuquerque Center
Fri 01:09:07 AM 31.8850 -106.5822 105° East 507 583 37,100 49 Climbing Albuquerque Center
Fri 01:10:08 AM 31.8492 -106.4269 105° East 508 585 37,100  Level Albuquerque Center
Fri 01:11:08 AM 31.8133 -106.2647 105° East 509 586 37,100  Level Albuquerque Center
Fri 01:12:09 AM 31.7719 -106.1033 107° East 511 588 37,100  Level Albuquerque Center
Fri 01:13:10 AM 31.7303 -105.9433 107° East 512 589 37,100  Level Albuquerque Center
Fri 01:14:11 AM 31.6908 -105.7814 106° East 514 592 37,100  Level Albuquerque Center
Fri 01:15:11 AM 31.6483 -105.6200 107° East 515 593 37,100  Level Albuquerque Center
Fri 01:16:12 AM 31.6089 -105.4575 106° East 515 593 37,100  Level Albuquerque Center
Fri 01:17:13 AM 31.5639 -105.2797 107° East 516 594 37,100  Level Albuquerque Center
Fri 01:18:14 AM 31.5192 -105.1000 106° East 516 594 37,100  Level Albuquerque Center
Fri 01:19:14 AM 31.4775 -104.9372 107° East 516 594 37,100  Level Albuquerque Center
Fri 01:20:15 AM 31.4361 -104.7764 107° East 516 594 37,100  Level Albuquerque Center
Fri 01:21:16 AM 31.3933 -104.6161 107° East 515 593 37,100  Level Albuquerque Center
Fri 01:22:17 AM 31.3511 -104.4542 107° East 515 593 37,100  Level Albuquerque Center
Fri 01:23:17 AM 31.3094 -104.2931 107° East 516 594 37,100  Level Albuquerque Center
Fri 01:24:18 AM 31.2658 -104.1317 108° East 517 595 37,100  Level Albuquerque Center
Fri 01:25:19 AM 31.2233 -103.9689 107° East 519 597 37,100  Level Albuquerque Center
Fri 01:26:20 AM 31.1794 -103.8069 108° East 519 597 37,100  Level Albuquerque Center
Fri 01:27:20 AM 31.1331 -103.6403 108° East 520 598 37,100  Level Albuquerque Center
Fri 01:28:21 AM 31.0897 -103.4792 107° East 521 600 37,100  Level Albuquerque Center
Fri 01:29:22 AM 31.0444 -103.3186 108° East 522 601 37,100  Level Albuquerque Center
Fri 01:30:23 AM 31.0017 -103.1581 107° East 522 601 37,100  Level Albuquerque Center
Fri 01:31:23 AM 30.9606 -103.0008 107° East 517 595 37,100  Level Albuquerque Center
Fri 01:32:24 AM 30.9381 -102.8333 99° East 527 606 37,100  Level Albuquerque Center
Fri 01:33:25 AM 30.9214 -102.6644 97° East 528 608 37,100  Level Albuquerque Center
Fri 01:34:25 AM 30.9042 -102.4983 97° East 527 606 37,100  Level Albuquerque Center
Fri 01:35:26 AM 30.8864 -102.3317 97° East 527 606 37,100  Level Albuquerque Center
Fri 01:36:27 AM 30.8686 -102.1317 96° East 527 606 37,100 64 Level Albuquerque Center
Fri 01:37:00 AM 30.8644 -102.0658 94° East 526 605 37,200 447 Climbing Houston Center
Fri 01:38:01 AM 30.8481 -101.9019 97° East 519 597 37,800 545 Climbing Houston Center
Fri 01:39:01 AM 30.8331 -101.7422 96° East 508 585 38,300 450 Climbing Houston Center
Fri 01:40:01 AM 30.8153 -101.5528 96° East 501 577 38,700 298 Climbing Houston Center
Fri 01:41:02 AM 30.7994 -101.3939 97° East 501 577 38,900 198 Climbing Houston Center
Fri 01:42:02 AM 30.7828 -101.2364 97° East 498 573 39,100 50 Climbing Houston Center
Fri 01:43:02 AM 30.7683 -101.0781 96° East 497 572 39,000  Descending Houston Center
Fri 01:44:02 AM 30.7506 -100.9183 97° East 497 572 39,100 50 Climbing Houston Center
Fri 01:45:03 AM 30.7336 -100.7594 97° East 496 571 39,100  Level Houston Center
Fri 01:46:03 AM 30.7164 -100.6000 97° East 502 578 39,100  Level Houston Center
Fri 01:47:04 AM 30.6997 -100.4336 97° East 504 580 39,100  Level Houston Center
Fri 01:48:04 AM 30.6833 -100.2703 97° East 505 581 39,100  Level Houston Center
Fri 01:49:04 AM 30.6653 -100.1061 97° East 508 585 39,100  Level Houston Center
Fri 01:50:05 AM 30.6478 -99.9428 97° East 508 585 39,100  Level Houston Center
Fri 01:51:05 AM 30.6292 -99.7778 97° East 511 588 39,100  Level Houston Center
Fri 01:52:05 AM 30.6103 -99.6153 98° East 509 586 39,100  Level Houston Center
Fri 01:53:05 AM 30.5914 -99.4511 98° East 510 587 39,100  Level Houston Center
Fri 01:54:06 AM 30.5731 -99.2872 97° East 511 588 39,100  Level Houston Center
Fri 01:55:06 AM 30.5547 -99.1233 97° East 511 588 39,100  Level Houston Center
Fri 01:56:06 AM 30.5336 -98.9592 98° East 512 589 39,100 -50 Level Houston Center
Fri 01:57:07 AM 30.5136 -98.7906 98° East 512 589 39,000 -50 Descending Houston Center
Fri 01:58:07 AM 30.4956 -98.6278 97° East 512 589 39,000  Level Houston Center
Fri 01:59:07 AM 30.4775 -98.4825 98° East 512 589 39,000  Level Houston Center
Fri 02:00:08 AM 30.4569 -98.3219 98° East 508 585 39,000 50 Level Houston Center
Fri 02:01:08 AM 30.4372 -98.1617 98° East 506 582 39,100  Climbing Houston Center
Fri 02:02:08 AM 30.4172 -98.0025 98° East 504 580 39,000 -50 Descending Houston Center
Fri 02:03:08 AM 30.3953 -97.8361 99° East 501 577 39,000  Level Houston Center
Fri 02:04:09 AM 30.3736 -97.6783 99° East 501 577 39,000  Level Houston Center
Fri 02:05:09 AM 30.3575 -97.5228 97° East 503 579 39,000  Level Houston Center
Fri 02:06:09 AM 30.3314 -97.3586 100° East 503 579 39,000  Level Houston Center
Fri 02:07:09 AM 30.3150 -97.2014 97° East 506 582 39,000  Level Houston Center
Fri 02:08:10 AM 30.2933 -97.0394 99° East 506 582 39,000  Level Houston Center
Fri 02:09:10 AM 30.2719 -96.8778 99° East 506 582 39,000 50 Level Houston Center
Fri 02:10:10 AM 30.2503 -96.7158 99° East 507 583 39,100  Climbing Houston Center
Fri 02:11:10 AM 30.2278 -96.5544 99° East 507 583 39,000 -50 Descending Houston Center
Fri 02:12:11 AM 30.2050 -96.3911 99° East 508 585 39,000  Level Houston Center
Fri 02:13:11 AM 30.1833 -96.2292 99° East 510 587 39,000  Level Houston Center
Fri 02:14:11 AM 30.1594 -96.0678 100° East 510 587 39,000 50 Level Houston Center
Fri 02:15:11 AM 30.1372 -95.9039 99° East 510 587 39,100  Climbing Houston Center
Fri 02:16:11 AM 30.1136 -95.7428 100° East 509 586 39,000 -50 Descending Houston Center
Fri 02:17:12 AM 30.0917 -95.5847 99° East 509 586 39,000 50 Level Houston Center
Fri 02:18:12 AM 30.0694 -95.4239 99° East 507 583 39,100 50 Climbing Houston Center
Fri 02:19:12 AM 30.0439 -95.2594 100° East 508 585 39,100 -50 Level Houston Center
Fri 02:20:12 AM 30.0200 -95.0978 100° East 508 585 39,000 -50 Descending Houston Center
Fri 02:21:13 AM 29.9939 -94.9375 101° East 505 581 39,000 50 Level Houston Center
Fri 02:22:13 AM 29.9592 -94.7800 104° East 505 581 39,100  Climbing Houston Center
Fri 02:23:13 AM 29.9272 -94.6239 103° East 503 579 39,000  Descending Houston Center
Fri 02:24:13 AM 29.8950 -94.4678 103° East 502 578 39,100  Climbing Houston Center
Fri 02:25:14 AM 29.8608 -94.3106 104° East 503 579 39,000 -50 Descending Houston Center
Fri 02:26:14 AM 29.8267 -94.1433 103° East 502 578 39,000 50 Level Houston Center
Fri 02:27:14 AM 29.7936 -93.9892 104° East 501 577 39,100  Climbing Houston Center
Fri 02:28:14 AM 29.7617 -93.8447 104° East 501 577 39,000 -50 Descending Houston Center
Fri 02:29:15 AM 29.7267 -93.6831 104° East 500 575 39,000  Level Houston Center
Fri 02:30:15 AM 29.6925 -93.5292 104° East 499 574 39,000  Level Houston Center
Fri 02:31:15 AM 29.6600 -93.3764 104° East 499 574 39,000  Level Houston Center
Fri 02:32:15 AM 29.6261 -93.2236 104° East 498 573 39,000  Level Houston Center
Fri 02:33:16 AM 29.5928 -93.0703 104° East 498 573 39,000  Level Houston Center
Fri 02:34:16 AM 29.5589 -92.9164 104° East 498 573 39,000 50 Level Houston Center
Fri 02:35:16 AM 29.5233 -92.7656 105° East 497 572 39,100  Climbing Houston Center
Fri 02:36:16 AM 29.4906 -92.6119 104° East 496 571 39,000  Descending Houston Center
Fri 02:37:17 AM 29.4556 -92.4594 105° East 496 571 39,100 50 Climbing Houston Center
Fri 02:38:17 AM 29.4203 -92.3083 105° East 496 571 39,100  Level Houston Center
Fri 02:39:17 AM 29.3858 -92.1561 105° East 494 568 39,100  Level Houston Center
Fri 02:40:17 AM 29.3506 -92.0050 105° East 494 568 39,100  Level Houston Center
Fri 02:41:17 AM 29.3142 -91.8544 105° East 493 567 39,100  Level Houston Center
Fri 02:42:18 AM 29.2789 -91.6956 104° East 493 567 39,100  Level Houston Center
Fri 02:43:18 AM 29.2433 -91.5461 105° East 492 566 39,100  Level Houston Center
Fri 02:44:18 AM 29.2075 -91.3964 105° East 492 566 39,100 -50 Level Houston Center
Fri 02:45:18 AM 29.1733 -91.2464 105° East 490 564 39,000  Descending Houston Center
Fri 02:46:19 AM 29.1372 -91.0969 105° East 490 564 39,100  Climbing Houston Center
Fri 02:47:19 AM 29.1003 -90.9475 106° East 490 564 39,000 -50 Descending Houston Center
Fri 02:48:19 AM 29.0647 -90.7975 105° East 490 564 39,000  Level Houston Center
Fri 02:49:19 AM 29.0294 -90.6481 105° East 490 564 39,000 50 Level Houston Center
Fri 02:50:19 AM 28.9928 -90.4975 106° East 491 565 39,100  Climbing Houston Center
Fri 02:51:20 AM 28.9561 -90.3478 106° East 491 565 39,000  Descending Houston Center
Fri 02:52:20 AM 28.9189 -90.1992 106° East 491 565 39,100  Climbing Houston Center
Fri 02:53:20 AM 28.8817 -90.0489 106° East 492 566 39,000  Descending Houston Center
Fri 02:54:20 AM 28.8444 -89.8997 106° East 491 565 39,100  Climbing Houston Center
Fri 02:55:20 AM 28.8064 -89.7486 106° East 493 567 39,000  Descending Houston Center
Fri 02:56:21 AM 28.7692 -89.5989 106° East 494 568 39,100 50 Climbing Houston Center
Fri 02:57:21 AM 28.7314 -89.4478 106° East 495 570 39,100  Level Houston Center
Fri 02:58:21 AM 28.6856 -89.2678 106° East 495 570 39,100  Level Houston Center
Fri 02:59:21 AM 28.6475 -89.1211 106° East 489 563 39,100  Level Houston Center
Fri 03:00:21 AM 28.6089 -88.9733 107° East 488 562 39,100  Level Houston Center
Fri 03:01:22 AM 28.5708 -88.8231 106° East 489 563 39,100  Level Houston Center
Fri 03:02:22 AM 28.5333 -88.6742 106° East 489 563 39,100  Level Houston Center
Fri 03:03:22 AM 28.4939 -88.5261 107° East 490 564 39,100  Level Houston Center
Fri 03:04:22 AM 28.4561 -88.3769 106° East 491 565 39,100  Level Houston Center
Fri 03:05:22 AM 28.4161 -88.2297 107° East 491 565 39,100  Level Houston Center
Fri 03:06:23 AM 28.3761 -88.0756 106° East 492 566 39,100  Level Houston Center
Fri 03:07:23 AM 28.3367 -87.9281 107° East 491 565 39,100  Level Houston Center
Fri 03:08:23 AM 28.2964 -87.7775 107° East 491 565 39,100  Level Houston Center
Fri 03:09:23 AM 28.2572 -87.6297 107° East 491 565 39,100  Level Houston Center
Fri 03:10:24 AM 28.2189 -87.4861 107° East 488 562 39,100  Level Houston Center
Fri 03:11:24 AM 28.1789 -87.3389 107° East 488 562 39,100  Level Houston Center
Fri 03:12:24 AM 28.1397 -87.1981 107° East 488 562 39,100  Level Houston Center
Fri 03:13:24 AM 28.0992 -87.0469 107° East 487 560 39,100  Level Houston Center
Fri 03:14:24 AM 28.0589 -86.9022 107° East 486 559 39,100  Level Houston Center
Fri 03:15:25 AM 28.0189 -86.7569 107° East 487 560 39,100  Level Houston Center
Fri 03:16:25 AM 27.9786 -86.6108 107° East 486 559 39,100  Level Houston Center
Fri 03:17:40 AM 27.9319 -86.4439 108° East 484 557 39,100  Level Jacksonville Center
Fri 03:18:40 AM 27.8900 -86.2944 108° East 484 557 39,100  Level Jacksonville Center
Fri 03:19:40 AM 27.8481 -86.1500 108° East 489 563 39,100  Level Jacksonville Center
Fri 03:20:40 AM 27.8078 -86.0081 108° East 483 556 39,100  Level Jacksonville Center
Fri 03:21:40 AM 27.7653 -85.8567 108° East 483 556 39,100  Level Jacksonville Center
Fri 03:22:40 AM 27.7228 -85.7100 108° East 493 567 39,100  Level Jacksonville Center
Fri 03:23:40 AM 27.6819 -85.5753 109° East 478 550 39,100  Level Jacksonville Center
Fri 03:24:47 AM 27.6317 -85.4033 108° East 493 567 39,100  Level Miami Center
Fri 03:25:47 AM 27.5919 -85.2600 107° East 499 574 39,100  Level Miami Center
Fri 03:26:47 AM 27.5464 -85.1139 109° East 491 565 39,100  Level Miami Center
Fri 03:27:47 AM 27.5108 -84.9689 105° East 491 565 39,100  Level Miami Center
Fri 03:28:49 AM 27.4531 -84.8058 112° Southeast 496 571 39,100  Level Miami Center
Fri 03:29:48 AM 27.4172 -84.6633 106° East 491 565 39,100  Level Miami Center
Fri 03:30:50 AM 27.3769 -84.5181 107° East 491 565 39,100  Level Miami Center
Fri 03:31:47 AM 27.3303 -84.3747 110° East 491 565 39,100  Level Miami Center
Fri 03:32:48 AM 27.2919 -84.2322 107° East 491 565 39,100  Level Miami Center
Fri 03:33:47 AM 27.2469 -84.0894 109° East 491 565 39,100  Level Miami Center
Fri 03:34:47 AM 27.2039 -83.9469 109° East 486 559 39,100  Level Miami Center
Fri 03:35:47 AM 27.1608 -83.8042 109° East 486 559 39,100  Level Miami Center
Fri 03:36:49 AM 27.1156 -83.6594 109° East 486 559 39,100  Level Miami Center
Fri 03:37:49 AM 27.0872 -83.5506 106° East 486 559 39,100  Level Miami Center
Fri 03:38:47 AM 27.0344 -83.3797 109° East 481 554 39,100  Level Miami Center
Fri 03:40:48 AM 26.9450 -83.0931 109° East 476 548 39,100 -500 Level Miami Center
Fri 03:41:47 AM 26.9028 -82.9558 109° East 476 548 37,600 -1,765 Descending Miami Center
Fri 03:42:47 AM 26.8606 -82.8164 109° East 471 542 35,600 -1,785 Descending Miami Center
Fri 03:43:48 AM 26.8181 -82.6842 110° East 466 536 34,000 -1,850 Descending Miami Center
Fri 03:44:47 AM 26.7792 -82.5567 109° East 452 520 31,900 -2,218 Descending Miami Center
Fri 03:45:47 AM 26.7383 -82.4267 109° East 439 505 29,600 -2,300 Descending Miami Center
Fri 03:46:47 AM 26.6972 -82.2969 110° East 439 505 27,300 -2,050 Descending Miami Center
Fri 03:47:47 AM 26.6581 -82.1719 109° East 434 499 25,500 -1,900 Descending Miami Center
Fri 03:48:47 AM 26.6147 -82.0425 111° Southeast 434 499 23,500 -1,902 Descending Miami Center
Fri 03:49:50 AM 26.5753 -81.9175 109° East 434 499 21,600 -1,850 Descending Miami Center
Fri 03:50:47 AM 26.5378 -81.7931 109° East 429 494 19,800 -2,103 Descending Miami Center
Fri 03:51:47 AM 26.4853 -81.6842 118° Southeast 415 478 17,500 -2,016 Descending Miami Center
Fri 03:52:49 AM 26.4339 -81.5892 121° Southeast 403 464 15,700 -1,650 Descending Miami Center
Fri 03:53:47 AM 26.3831 -81.4853 119° Southeast 393 452 14,200 -1,780 Descending Miami Center
Fri 03:54:47 AM 26.3339 -81.3906 120° Southeast 367 422 12,200 -1,850 Descending Miami Center
Fri 03:55:47 AM 26.2844 -81.2983 121° Southeast 360 414 10,500 -1,400 Descending Miami Center
Fri 03:56:47 AM 26.2408 -81.2203 122° Southeast 330 380 9,400 -1,267 Descending Miami Center
Fri 03:57:17 AM 26.2131 -81.1731 123° Southeast 290 334 8,600 -1,625 Descending Miami Center
Fri 03:57:35 AM 26.2011 -81.1494 119° Southeast 293 337 8,100 -909 Descending Miami Center
Fri 03:57:50 AM 26.2014 -81.1403 88° East 306 352 8,100 -375 Level Miami Center
Fri 03:58:39 AM 26.1703 -81.0650 115° Southeast 300 345 7,700 -953 Descending Miami Center
Fri 03:59:37 AM 26.1497 -80.9764 104° East 290 334 6,400 -1,235 Descending Miami Center
Fri 03:59:47 AM 26.1522 -80.9672 73° East 289 333 6,300 -957 Descending Miami Center
Fri 04:00:46 AM 26.1294 -80.8808 106° East 274 315 5,300 -1,026 Descending Miami Center
Fri 04:01:44 AM 26.1150 -80.8042 102° East 276 318 4,300 -966 Descending Miami Center
Fri 04:02:44 AM 26.0964 -80.7178 103° East 268 308 3,400 -645 Descending Miami Center
Fri 04:03:45 AM 26.0817 -80.6386 102° East 258 297 3,000 -198 Descending Miami Center
Fri 04:04:45 AM 26.0794 -80.5600 92° East 254 292 3,000  Level Miami Center
Fri 04:05:46 AM 26.0792 -80.4836 90° East 251 289 3,000  Level Miami Center
Fri 04:06:47 AM 26.0769 -80.4072 92° East 248 285 3,000  Level Miami Center
Fri 04:07:41 AM 26.0767 -80.3356 90° East 249 287 3,000 -672 Level Miami Center
Fri 04:08:43 AM 26.0742 -80.2661 92° East 217 250 1,700 -1,065 Descending Miami Center
Fri 04:09:45 AM 26.0753 -80.2175 89° East 108 124 800 -871 Descending Miami Center
Fri 04:11:00 AM 26.0667 -80.1500 90° East  Level FlightAware Approximate
Fri 04:18:00 AM 26.0726 -80.1527 90° East  Level Estimated
Fri 04:19:00 AM 26.0667 -80.1500 90° East  Level FlightAware Approximate

Login

Don't have an account? Register now (free) for customized features, flight alerts, and more!